TOM612C EGKK-LOWI
Flight info
| Callsign | TOM612C |
|---|---|
| Flight time | N/A |
| Altitude | 23000 |
| Route | DVR L9 KONAN/N0459F370 DCT KOK UL607 FERDI DCT REMBA DCT LIRSU DCT KRH DCT TEDGO/N0460F350 DCT BATUB/N0459F310 M738 MADEB MADEB1B |
| Aircraft | B738/M-SDE2E3FGHIRWXY/LB1 |
Departure
| Time | 2026-05-05 23:06 |
|---|---|
| Airport | London Gatwick Airport (EGKK) |
Arrival
| Time | N/A |
|---|---|
| Airport | Innsbruck Airport (LOWI) |
| Time | Latitude | Longitude | Altitude | Speed | Heading |
|---|---|---|---|---|---|
| 2026-05-05 22:41 | 51.15506 | -0.16781 | 191 ft | 0 kts | 348° |
| 2026-05-05 22:53 | 51.15493 | -0.16777 | 191 ft | 2 kts | 348° |
| 2026-05-05 22:53 | 51.15478 | -0.16772 | 191 ft | 2 kts | 348° |
| 2026-05-05 22:53 | 51.15469 | -0.16769 | 191 ft | 2 kts | 348° |
| 2026-05-05 22:54 | 51.15455 | -0.16758 | 191 ft | 2 kts | 311° |
| 2026-05-05 22:54 | 51.15448 | -0.16741 | 192 ft | 0 kts | 287° |
| 2026-05-05 22:54 | 51.15447 | -0.16731 | 192 ft | 1 kts | 283° |
| 2026-05-05 22:54 | 51.15447 | -0.16729 | 192 ft | 0 kts | 283° |
| 2026-05-05 22:57 | 51.15453 | -0.16785 | 190 ft | 7 kts | 274° |
| 2026-05-05 22:57 | 51.15443 | -0.16887 | 187 ft | 10 kts | 256° |
| 2026-05-05 22:57 | 51.15425 | -0.17009 | 184 ft | 12 kts | 258° |
| 2026-05-05 22:58 | 51.15409 | -0.17119 | 185 ft | 7 kts | 257° |
| 2026-05-05 22:58 | 51.15406 | -0.17138 | 185 ft | 0 kts | 257° |
| 2026-05-05 22:58 | 51.15406 | -0.17141 | 185 ft | 1 kts | 257° |
| 2026-05-05 22:58 | 51.15384 | -0.17223 | 185 ft | 14 kts | 243° |
| 2026-05-05 22:59 | 51.15348 | -0.17358 | 187 ft | 0 kts | 238° |
| 2026-05-05 22:59 | 51.15335 | -0.17367 | 187 ft | 6 kts | 189° |
| 2026-05-05 22:59 | 51.15300 | -0.17426 | 189 ft | 11 kts | 255° |
| 2026-05-05 23:00 | 51.15245 | -0.17835 | 194 ft | 16 kts | 258° |
| 2026-05-05 23:00 | 51.15219 | -0.18008 | 194 ft | 15 kts | 257° |
| 2026-05-05 23:00 | 51.15196 | -0.18172 | 192 ft | 15 kts | 257° |
| 2026-05-05 23:01 | 51.15176 | -0.18322 | 195 ft | 11 kts | 259° |
| 2026-05-05 23:01 | 51.15163 | -0.18451 | 195 ft | 13 kts | 260° |
| 2026-05-05 23:01 | 51.15145 | -0.18599 | 195 ft | 13 kts | 258° |
| 2026-05-05 23:01 | 51.15126 | -0.18745 | 195 ft | 15 kts | 258° |
| 2026-05-05 23:02 | 51.15100 | -0.18929 | 195 ft | 18 kts | 258° |
| 2026-05-05 23:02 | 51.15070 | -0.19157 | 194 ft | 23 kts | 258° |
| 2026-05-05 23:02 | 51.15033 | -0.19430 | 192 ft | 26 kts | 257° |
| 2026-05-05 23:02 | 51.14994 | -0.19700 | 193 ft | 22 kts | 257° |
| 2026-05-05 23:03 | 51.14964 | -0.19918 | 195 ft | 18 kts | 257° |
| 2026-05-05 23:03 | 51.14938 | -0.20104 | 195 ft | 15 kts | 257° |
| 2026-05-05 23:03 | 51.14916 | -0.20257 | 197 ft | 12 kts | 257° |
| 2026-05-05 23:03 | 51.14895 | -0.20403 | 197 ft | 19 kts | 258° |
| 2026-05-05 23:04 | 51.14871 | -0.20591 | 195 ft | 10 kts | 252° |
| 2026-05-05 23:04 | 51.14823 | -0.20658 | 195 ft | 8 kts | 209° |
| 2026-05-05 23:04 | 51.14773 | -0.20700 | 195 ft | 7 kts | 207° |
| 2026-05-05 23:04 | 51.14730 | -0.20717 | 196 ft | 5 kts | 172° |
| 2026-05-05 23:05 | 51.14694 | -0.20710 | 195 ft | 5 kts | 175° |
| 2026-05-05 23:05 | 51.14625 | -0.20689 | 195 ft | 10 kts | 168° |
| 2026-05-05 23:05 | 51.14597 | -0.20624 | 195 ft | 5 kts | 83° |
| 2026-05-05 23:05 | 51.14600 | -0.20598 | 195 ft | 0 kts | 79° |
| 2026-05-05 23:06 | 51.14601 | -0.20592 | 195 ft | 6 kts | 79° |
| 2026-05-05 23:06 | 51.14687 | -0.19979 | 195 ft | 103 kts | 77° |
| 2026-05-05 23:06 | 51.14897 | -0.18437 | 251 ft | 174 kts | 77° |
| 2026-05-05 23:06 | 51.15158 | -0.16553 | 898 ft | 167 kts | 76° |
| 2026-05-05 23:07 | 51.15389 | -0.14791 | 1436 ft | 169 kts | 76° |
| 2026-05-05 23:07 | 51.15589 | -0.13058 | 2050 ft | 153 kts | 77° |
| 2026-05-05 23:07 | 51.15811 | -0.11331 | 2010 ft | 173 kts | 72° |
| 2026-05-05 23:07 | 51.16140 | -0.09418 | 2551 ft | 187 kts | 73° |
| 2026-05-05 23:08 | 51.16446 | -0.07323 | 3119 ft | 203 kts | 75° |
| 2026-05-05 23:08 | 51.16754 | -0.05017 | 3662 ft | 223 kts | 75° |
| 2026-05-05 23:08 | 51.17079 | -0.02541 | 4315 ft | 239 kts | 76° |
| 2026-05-05 23:08 | 51.17426 | 0.00132 | 4967 ft | 255 kts | 76° |
| 2026-05-05 23:09 | 51.17790 | 0.02932 | 5687 ft | 266 kts | 76° |
| 2026-05-05 23:09 | 51.18173 | 0.05866 | 5915 ft | 272 kts | 76° |
| 2026-05-05 23:09 | 51.18443 | 0.08790 | 5939 ft | 268 kts | 85° |
| 2026-05-05 23:09 | 51.18176 | 0.11728 | 5953 ft | 270 kts | 105° |
| 2026-05-05 23:10 | 51.17437 | 0.14470 | 5953 ft | 271 kts | 109° |
| 2026-05-05 23:10 | 51.17005 | 0.17367 | 5947 ft | 267 kts | 91° |
| 2026-05-05 23:10 | 51.16985 | 0.20329 | 5953 ft | 267 kts | 85° |
| 2026-05-05 23:10 | 51.17037 | 0.23247 | 5958 ft | 265 kts | 86° |
| 2026-05-05 23:11 | 51.17042 | 0.26197 | 5941 ft | 264 kts | 88° |
| 2026-05-05 23:11 | 51.17012 | 0.29114 | 5959 ft | 266 kts | 88° |
| 2026-05-05 23:11 | 51.16968 | 0.32037 | 5947 ft | 266 kts | 88° |
| 2026-05-05 23:11 | 51.16940 | 0.34976 | 5939 ft | 265 kts | 87° |
| 2026-05-05 23:12 | 51.16935 | 0.37916 | 5946 ft | 266 kts | 86° |
| 2026-05-05 23:12 | 51.16936 | 0.40859 | 5940 ft | 265 kts | 86° |
| 2026-05-05 23:12 | 51.16933 | 0.43788 | 5935 ft | 265 kts | 86° |
| 2026-05-05 23:12 | 51.16928 | 0.46698 | 5931 ft | 265 kts | 86° |
| 2026-05-05 23:13 | 51.16921 | 0.49650 | 5936 ft | 265 kts | 87° |
| 2026-05-05 23:13 | 51.16912 | 0.52574 | 5933 ft | 266 kts | 87° |
| 2026-05-05 23:13 | 51.16901 | 0.55497 | 5936 ft | 265 kts | 87° |
| 2026-05-05 23:13 | 51.16889 | 0.58461 | 5933 ft | 266 kts | 87° |
| 2026-05-05 23:14 | 51.16877 | 0.61384 | 5931 ft | 265 kts | 87° |
| 2026-05-05 23:14 | 51.16864 | 0.64310 | 5929 ft | 265 kts | 86° |
| 2026-05-05 23:14 | 51.16850 | 0.67257 | 5930 ft | 265 kts | 88° |
| 2026-05-05 23:14 | 51.16835 | 0.70172 | 5929 ft | 266 kts | 88° |
| 2026-05-05 23:15 | 51.16819 | 0.73130 | 5930 ft | 266 kts | 88° |
| 2026-05-05 23:15 | 51.16803 | 0.76042 | 5926 ft | 265 kts | 87° |
| 2026-05-05 23:15 | 51.16786 | 0.78997 | 5926 ft | 265 kts | 87° |
| 2026-05-05 23:15 | 51.16769 | 0.81917 | 5928 ft | 265 kts | 87° |
| 2026-05-05 23:16 | 51.16751 | 0.84834 | 5928 ft | 265 kts | 87° |
| 2026-05-05 23:16 | 51.16732 | 0.87773 | 5930 ft | 265 kts | 87° |
| 2026-05-05 23:16 | 51.16689 | 0.90754 | 6272 ft | 281 kts | 89° |
| 2026-05-05 23:16 | 51.16585 | 0.93789 | 7464 ft | 274 kts | 91° |
| 2026-05-05 23:17 | 51.16462 | 0.96810 | 8318 ft | 278 kts | 91° |
| 2026-05-05 23:17 | 51.16336 | 0.99895 | 9164 ft | 283 kts | 91° |
| 2026-05-05 23:17 | 51.16217 | 1.03001 | 9979 ft | 287 kts | 91° |
| 2026-05-05 23:17 | 51.16101 | 1.06220 | 10602 ft | 299 kts | 91° |
| 2026-05-05 23:18 | 51.15987 | 1.09561 | 11108 ft | 314 kts | 91° |
| 2026-05-05 23:18 | 51.15863 | 1.13147 | 11586 ft | 330 kts | 91° |
| 2026-05-05 23:18 | 51.15733 | 1.16830 | 12041 ft | 346 kts | 92° |
| 2026-05-05 23:18 | 51.15593 | 1.20764 | 12464 ft | 362 kts | 92° |
| 2026-05-05 23:19 | 51.15446 | 1.24814 | 12935 ft | 375 kts | 92° |
| 2026-05-05 23:19 | 51.15292 | 1.28976 | 13670 ft | 380 kts | 92° |
| 2026-05-05 23:19 | 51.15138 | 1.33122 | 14516 ft | 381 kts | 92° |
| 2026-05-05 23:19 | 51.14977 | 1.37370 | 15209 ft | 387 kts | 92° |
| 2026-05-05 23:20 | 51.14816 | 1.41610 | 15926 ft | 391 kts | 92° |
| 2026-05-05 23:20 | 51.14650 | 1.45940 | 16671 ft | 395 kts | 92° |
| 2026-05-05 23:20 | 51.14481 | 1.50332 | 17334 ft | 400 kts | 92° |
| 2026-05-05 23:20 | 51.14310 | 1.54740 | 18050 ft | 403 kts | 92° |
| 2026-05-05 23:21 | 51.14138 | 1.59160 | 18697 ft | 407 kts | 92° |
| 2026-05-05 23:21 | 51.13959 | 1.63659 | 19379 ft | 410 kts | 92° |
| 2026-05-05 23:21 | 51.13779 | 1.68193 | 20038 ft | 414 kts | 93° |
| 2026-05-05 23:21 | 51.13595 | 1.72726 | 20675 ft | 417 kts | 93° |
| 2026-05-05 23:22 | 51.13405 | 1.77381 | 21286 ft | 421 kts | 93° |
| 2026-05-05 23:22 | 51.13215 | 1.81985 | 21834 ft | 425 kts | 93° |
| 2026-05-05 23:22 | 51.13017 | 1.86723 | 22427 ft | 429 kts | 93° |
| 2026-05-05 23:22 | 51.12821 | 1.91390 | 23008 ft | 431 kts | 93° |
| 2026-05-05 23:23 | 51.12620 | 1.96153 | 23550 ft | 435 kts | 94° |
| 2026-05-05 23:23 | 51.12413 | 2.01012 | 24099 ft | 439 kts | 94° |
| 2026-05-05 23:23 | 51.12206 | 2.05809 | 24683 ft | 441 kts | 94° |
| 2026-05-05 23:23 | 51.11994 | 2.10670 | 25214 ft | 445 kts | 94° |
| 2026-05-05 23:24 | 51.11778 | 2.15596 | 25756 ft | 448 kts | 94° |
| 2026-05-05 23:24 | 51.11558 | 2.20534 | 26314 ft | 450 kts | 94° |
| 2026-05-05 23:24 | 51.11336 | 2.25478 | 26853 ft | 453 kts | 94° |
| 2026-05-05 23:24 | 51.11109 | 2.30486 | 27340 ft | 456 kts | 95° |
| 2026-05-05 23:25 | 51.10881 | 2.35476 | 27869 ft | 457 kts | 95° |
| 2026-05-05 23:25 | 51.10648 | 2.40518 | 28321 ft | 461 kts | 95° |
| 2026-05-05 23:25 | 51.10413 | 2.45578 | 29019 ft | 458 kts | 95° |
| 2026-05-05 23:25 | 51.10178 | 2.50569 | 29751 ft | 454 kts | 95° |
| 2026-05-05 23:26 | 51.09946 | 2.55489 | 30496 ft | 449 kts | 95° |
| 2026-05-05 23:26 | 51.09689 | 2.60421 | 31048 ft | 448 kts | 96° |
| 2026-05-05 23:26 | 51.09277 | 2.65347 | 31550 ft | 447 kts | 101° |
| 2026-05-05 23:26 | 51.08651 | 2.70107 | 32002 ft | 447 kts | 105° |
| 2026-05-05 23:27 | 51.07861 | 2.74917 | 32443 ft | 447 kts | 107° |
| 2026-05-05 23:27 | 51.07019 | 2.79596 | 32748 ft | 449 kts | 107° |
| 2026-05-05 23:27 | 51.06131 | 2.84373 | 33026 ft | 452 kts | 108° |
| 2026-05-05 23:27 | 51.05243 | 2.89099 | 33698 ft | 446 kts | 108° |
| 2026-05-05 23:28 | 51.04365 | 2.93766 | 34312 ft | 441 kts | 108° |
| 2026-05-05 23:28 | 51.03490 | 2.98440 | 34885 ft | 436 kts | 108° |
| 2026-05-05 23:28 | 51.02640 | 3.02985 | 35118 ft | 437 kts | 108° |
| 2026-05-05 23:28 | 51.01769 | 3.07650 | 35190 ft | 442 kts | 107° |
| 2026-05-05 23:29 | 51.00890 | 3.12356 | 35306 ft | 446 kts | 108° |
| 2026-05-05 23:29 | 51.00013 | 3.17045 | 35527 ft | 444 kts | 108° |
| 2026-05-05 23:29 | 50.99155 | 3.21649 | 35792 ft | 440 kts | 108° |
| 2026-05-05 23:29 | 50.98292 | 3.26284 | 36243 ft | 441 kts | 108° |
| 2026-05-05 23:30 | 50.97424 | 3.30941 | 36402 ft | 443 kts | 108° |
| 2026-05-05 23:30 | 50.96546 | 3.35644 | 36636 ft | 442 kts | 107° |
| 2026-05-05 23:30 | 50.95674 | 3.40305 | 36816 ft | 443 kts | 108° |
| 2026-05-05 23:30 | 50.94798 | 3.44971 | 36851 ft | 446 kts | 108° |
| 2026-05-05 23:31 | 50.93034 | 3.54346 | 36862 ft | 444 kts | 108° |
| 2026-05-05 23:31 | 50.91275 | 3.63641 | 36860 ft | 442 kts | 108° |
| 2026-05-05 23:32 | 50.89507 | 3.72933 | 36871 ft | 442 kts | 108° |
| 2026-05-05 23:32 | 50.87733 | 3.82208 | 36855 ft | 441 kts | 108° |
| 2026-05-05 23:33 | 50.85962 | 3.91430 | 36864 ft | 441 kts | 108° |
| 2026-05-05 23:33 | 50.84179 | 4.00671 | 36854 ft | 440 kts | 108° |
| 2026-05-05 23:34 | 50.82385 | 4.09924 | 36850 ft | 441 kts | 108° |
| 2026-05-05 23:34 | 50.80589 | 4.19152 | 36854 ft | 441 kts | 108° |
| 2026-05-05 23:35 | 50.78784 | 4.28379 | 36843 ft | 440 kts | 108° |
| 2026-05-05 23:35 | 50.76978 | 4.37560 | 36839 ft | 441 kts | 108° |
| 2026-05-05 23:36 | 50.75156 | 4.46776 | 36853 ft | 441 kts | 109° |
| 2026-05-05 23:36 | 50.73331 | 4.55974 | 36839 ft | 440 kts | 109° |
| 2026-05-05 23:37 | 50.71503 | 4.65136 | 36849 ft | 441 kts | 109° |
| 2026-05-05 23:37 | 50.69670 | 4.74285 | 36847 ft | 441 kts | 109° |
| 2026-05-05 23:38 | 50.67818 | 4.83483 | 36835 ft | 440 kts | 109° |
| 2026-05-05 23:38 | 50.65899 | 4.92628 | 36823 ft | 440 kts | 112° |
| 2026-05-05 23:39 | 50.63443 | 5.01399 | 36831 ft | 439 kts | 117° |
| 2026-05-05 23:39 | 50.60789 | 5.09956 | 36827 ft | 439 kts | 117° |
| 2026-05-05 23:40 | 50.58123 | 5.18524 | 36820 ft | 438 kts | 117° |
| 2026-05-05 23:40 | 50.55469 | 5.27134 | 36815 ft | 438 kts | 117° |
| 2026-05-05 23:41 | 50.52834 | 5.35727 | 36818 ft | 439 kts | 117° |
| 2026-05-05 23:41 | 50.50201 | 5.44325 | 36814 ft | 439 kts | 117° |
| 2026-05-05 23:42 | 50.47559 | 5.52942 | 36820 ft | 439 kts | 117° |
| 2026-05-05 23:42 | 50.44918 | 5.61526 | 36808 ft | 438 kts | 117° |
| 2026-05-05 23:43 | 50.42271 | 5.70107 | 36807 ft | 438 kts | 118° |
| 2026-05-05 23:43 | 50.39621 | 5.78664 | 36798 ft | 438 kts | 118° |
| 2026-05-05 23:44 | 50.36974 | 5.87182 | 36789 ft | 438 kts | 118° |
| 2026-05-05 23:44 | 50.34317 | 5.95705 | 36776 ft | 438 kts | 118° |
| 2026-05-05 23:45 | 50.31649 | 6.04231 | 36786 ft | 438 kts | 118° |
| 2026-05-05 23:45 | 50.28967 | 6.12769 | 36770 ft | 438 kts | 118° |
| 2026-05-05 23:46 | 50.26294 | 6.21258 | 36778 ft | 439 kts | 118° |
| 2026-05-05 23:46 | 50.23590 | 6.29812 | 36756 ft | 438 kts | 118° |
| 2026-05-05 23:47 | 50.20905 | 6.38266 | 36762 ft | 439 kts | 118° |
| 2026-05-05 23:47 | 50.17908 | 6.46562 | 36781 ft | 438 kts | 125° |
| 2026-05-05 23:48 | 50.14221 | 6.54002 | 36783 ft | 436 kts | 131° |
| 2026-05-05 23:48 | 50.10283 | 6.61168 | 36795 ft | 437 kts | 131° |
| 2026-05-05 23:49 | 50.06334 | 6.68299 | 36786 ft | 436 kts | 132° |
| 2026-05-05 23:49 | 50.02395 | 6.75456 | 36796 ft | 437 kts | 132° |
| 2026-05-05 23:50 | 49.98480 | 6.82602 | 36789 ft | 437 kts | 131° |
| 2026-05-05 23:50 | 49.94525 | 6.89835 | 36782 ft | 438 kts | 132° |
| 2026-05-05 23:51 | 49.90599 | 6.97000 | 36794 ft | 438 kts | 131° |
| 2026-05-05 23:51 | 49.86678 | 7.04140 | 36797 ft | 439 kts | 132° |
| 2026-05-05 23:52 | 49.82708 | 7.11345 | 36797 ft | 439 kts | 132° |
| 2026-05-05 23:52 | 49.78776 | 7.18466 | 36789 ft | 439 kts | 132° |
| 2026-05-05 23:53 | 49.74826 | 7.25604 | 36801 ft | 440 kts | 132° |
| 2026-05-05 23:53 | 49.70861 | 7.32746 | 36812 ft | 439 kts | 132° |
| 2026-05-05 23:54 | 49.66884 | 7.39893 | 36791 ft | 439 kts | 132° |
| 2026-05-05 23:54 | 49.62919 | 7.46995 | 36814 ft | 441 kts | 132° |
| 2026-05-05 23:55 | 49.58905 | 7.54164 | 36794 ft | 440 kts | 132° |
| 2026-05-05 23:55 | 49.54931 | 7.61242 | 36812 ft | 442 kts | 132° |
| 2026-05-05 23:56 | 49.50924 | 7.68362 | 36796 ft | 441 kts | 133° |
| 2026-05-05 23:56 | 49.46904 | 7.75492 | 36793 ft | 440 kts | 133° |
| 2026-05-05 23:57 | 49.42884 | 7.82597 | 36812 ft | 442 kts | 133° |
| 2026-05-05 23:57 | 49.38860 | 7.89689 | 36801 ft | 442 kts | 133° |
| 2026-05-05 23:58 | 49.34843 | 7.96742 | 36802 ft | 442 kts | 134° |
| 2026-05-05 23:58 | 49.30788 | 8.03842 | 36801 ft | 443 kts | 133° |
| 2026-05-05 23:59 | 49.26752 | 8.10899 | 36813 ft | 443 kts | 134° |
| 2026-05-05 23:59 | 49.22703 | 8.17959 | 36816 ft | 443 kts | 134° |
| 2026-05-06 00:00 | 49.18661 | 8.24986 | 36818 ft | 444 kts | 134° |
| 2026-05-06 00:00 | 49.14582 | 8.32058 | 36817 ft | 443 kts | 134° |
| 2026-05-06 00:01 | 49.10511 | 8.39094 | 36818 ft | 443 kts | 134° |
| 2026-05-06 00:01 | 49.06451 | 8.46095 | 36825 ft | 444 kts | 134° |
| 2026-05-06 00:02 | 49.02369 | 8.53113 | 36820 ft | 444 kts | 134° |
| 2026-05-06 00:02 | 48.98286 | 8.60134 | 36830 ft | 444 kts | 133° |
| 2026-05-06 00:03 | 48.94288 | 8.67324 | 36834 ft | 446 kts | 133° |
| 2026-05-06 00:03 | 48.90362 | 8.74528 | 36841 ft | 445 kts | 133° |
| 2026-05-06 00:04 | 48.86396 | 8.81778 | 36847 ft | 446 kts | 133° |
| 2026-05-06 00:04 | 48.82444 | 8.88950 | 36853 ft | 445 kts | 133° |
| 2026-05-06 00:05 | 48.76488 | 8.99689 | 36848 ft | 445 kts | 133° |
| 2026-05-06 00:06 | 48.72509 | 9.06834 | 36858 ft | 446 kts | 134° |
| 2026-05-06 00:06 | 48.68514 | 9.13982 | 36861 ft | 446 kts | 134° |
| 2026-05-06 00:07 | 48.64497 | 9.21036 | 36856 ft | 445 kts | 136° |
| 2026-05-06 00:07 | 48.59765 | 9.26750 | 36722 ft | 433 kts | 156° |
| 2026-05-06 00:07 | 48.57013 | 9.28575 | 36847 ft | 433 kts | 161° |
| 2026-05-06 00:08 | 48.54175 | 9.30140 | 36859 ft | 436 kts | 163° |
| 2026-05-06 00:08 | 48.48439 | 9.33015 | 36856 ft | 434 kts | 165° |
| 2026-05-06 00:09 | 48.42713 | 9.35832 | 36872 ft | 433 kts | 164° |
| 2026-05-06 00:09 | 48.37018 | 9.38668 | 36860 ft | 433 kts | 165° |
| 2026-05-06 00:10 | 48.31319 | 9.41538 | 36870 ft | 434 kts | 164° |
| 2026-05-06 00:10 | 48.25634 | 9.44411 | 36865 ft | 434 kts | 164° |
| 2026-05-06 00:11 | 48.19917 | 9.47303 | 36875 ft | 434 kts | 164° |
| 2026-05-06 00:11 | 48.14219 | 9.50183 | 36874 ft | 434 kts | 164° |
| 2026-05-06 00:12 | 48.08520 | 9.53055 | 36874 ft | 434 kts | 164° |
| 2026-05-06 00:12 | 48.02875 | 9.56256 | 36879 ft | 436 kts | 158° |
| 2026-05-06 00:13 | 47.97615 | 9.60832 | 36888 ft | 442 kts | 149° |
| 2026-05-06 00:13 | 47.92620 | 9.66141 | 36899 ft | 442 kts | 148° |
| 2026-05-06 00:14 | 47.87702 | 9.71565 | 36892 ft | 442 kts | 148° |
| 2026-05-06 00:14 | 47.82742 | 9.76997 | 36893 ft | 443 kts | 148° |
| 2026-05-06 00:15 | 47.77817 | 9.82326 | 36893 ft | 441 kts | 149° |
| 2026-05-06 00:15 | 47.72832 | 9.87678 | 36896 ft | 441 kts | 149° |
| 2026-05-06 00:16 | 47.67868 | 9.92984 | 36916 ft | 442 kts | 149° |
| 2026-05-06 00:16 | 47.62913 | 9.98264 | 36912 ft | 440 kts | 149° |
| 2026-05-06 00:17 | 47.57959 | 10.03532 | 36937 ft | 441 kts | 149° |
| 2026-05-06 00:17 | 47.52962 | 10.08837 | 36856 ft | 439 kts | 149° |
| 2026-05-06 00:17 | 47.50518 | 10.11428 | 36511 ft | 434 kts | 150° |
| 2026-05-06 00:18 | 47.48101 | 10.13987 | 36058 ft | 430 kts | 150° |
| 2026-05-06 00:18 | 47.45682 | 10.16549 | 35489 ft | 431 kts | 151° |
| 2026-05-06 00:18 | 47.43216 | 10.19134 | 34782 ft | 434 kts | 152° |
| 2026-05-06 00:18 | 47.40709 | 10.21585 | 34132 ft | 433 kts | 154° |
| 2026-05-06 00:19 | 47.38216 | 10.23960 | 34001 ft | 425 kts | 153° |
| 2026-05-06 00:19 | 47.33888 | 10.30086 | 33996 ft | 456 kts | 131° |
| 2026-05-06 00:19 | 47.32327 | 10.34213 | 33994 ft | 475 kts | 121° |
| 2026-05-06 00:20 | 47.31174 | 10.38886 | 33760 ft | 491 kts | 112° |
| 2026-05-06 00:20 | 47.30320 | 10.43750 | 33526 ft | 492 kts | 109° |
| 2026-05-06 00:20 | 47.29617 | 10.48610 | 33277 ft | 490 kts | 105° |
| 2026-05-06 00:20 | 47.29225 | 10.53595 | 33025 ft | 492 kts | 98° |
| 2026-05-06 00:21 | 47.29200 | 10.58644 | 32780 ft | 498 kts | 91° |
| 2026-05-06 00:21 | 47.29446 | 10.63753 | 32533 ft | 503 kts | 88° |
| 2026-05-06 00:21 | 47.29844 | 10.68835 | 32283 ft | 505 kts | 87° |
| 2026-05-06 00:21 | 47.30328 | 10.73911 | 31976 ft | 503 kts | 85° |
| 2026-05-06 00:22 | 47.30870 | 10.78977 | 31105 ft | 507 kts | 84° |
| 2026-05-06 00:22 | 47.31448 | 10.84094 | 30136 ft | 511 kts | 84° |
| 2026-05-06 00:22 | 47.32041 | 10.89252 | 29329 ft | 509 kts | 84° |
| 2026-05-06 00:22 | 47.32625 | 10.94325 | 28489 ft | 508 kts | 84° |
| 2026-05-06 00:23 | 47.33210 | 10.99462 | 27666 ft | 506 kts | 84° |
| 2026-05-06 00:23 | 47.33776 | 11.04519 | 27026 ft | 500 kts | 84° |
| 2026-05-06 00:23 | 47.34327 | 11.09504 | 26314 ft | 496 kts | 84° |
| 2026-05-06 00:23 | 47.34867 | 11.14455 | 25754 ft | 489 kts | 84° |
| 2026-05-06 00:24 | 47.35402 | 11.19397 | 25105 ft | 483 kts | 84° |
| 2026-05-06 00:24 | 47.35915 | 11.24190 | 24441 ft | 478 kts | 84° |
| 2026-05-06 00:24 | 47.36428 | 11.29021 | 23814 ft | 472 kts | 84° |
| 2026-05-06 00:24 | 47.36928 | 11.33749 | 23102 ft | 468 kts | 84° |
| 2026-05-06 00:25 | 47.37425 | 11.38488 | 22453 ft | 463 kts | 84° |
| 2026-05-06 00:25 | 47.37907 | 11.43102 | 21814 ft | 458 kts | 84° |
| 2026-05-06 00:25 | 47.38386 | 11.47706 | 21154 ft | 454 kts | 84° |
| 2026-05-06 00:25 | 47.38860 | 11.52280 | 20509 ft | 450 kts | 83° |
| 2026-05-06 00:26 | 47.39325 | 11.56780 | 19937 ft | 444 kts | 83° |
| 2026-05-06 00:26 | 47.39781 | 11.61209 | 19517 ft | 434 kts | 83° |
| 2026-05-06 00:26 | 47.40227 | 11.65536 | 19321 ft | 420 kts | 84° |
| 2026-05-06 00:26 | 47.40654 | 11.69706 | 19176 ft | 405 kts | 84° |
| 2026-05-06 00:27 | 47.41067 | 11.73746 | 19033 ft | 392 kts | 84° |
| 2026-05-06 00:27 | 47.41428 | 11.77660 | 18853 ft | 378 kts | 88° |
| 2026-05-06 00:27 | 47.41428 | 11.81435 | 18722 ft | 361 kts | 101° |
| 2026-05-06 00:27 | 47.40857 | 11.84878 | 18584 ft | 342 kts | 116° |
| 2026-05-06 00:28 | 47.39819 | 11.87958 | 18412 ft | 328 kts | 126° |
| 2026-05-06 00:28 | 47.38545 | 11.90718 | 17926 ft | 326 kts | 134° |
| 2026-05-06 00:28 | 47.36935 | 11.93043 | 17231 ft | 327 kts | 147° |
| 2026-05-06 00:28 | 47.35006 | 11.94757 | 16627 ft | 326 kts | 158° |
| 2026-05-06 00:29 | 47.32906 | 11.96023 | 16019 ft | 327 kts | 165° |
| 2026-05-06 00:29 | 47.30698 | 11.96772 | 15410 ft | 327 kts | 177° |
| 2026-05-06 00:29 | 47.28469 | 11.96752 | 14813 ft | 326 kts | 189° |
| 2026-05-06 00:29 | 47.26242 | 11.96102 | 14198 ft | 326 kts | 197° |
| 2026-05-06 00:30 | 47.24096 | 11.94983 | 13572 ft | 327 kts | 207° |
| 2026-05-06 00:30 | 47.22192 | 11.93252 | 12962 ft | 327 kts | 219° |
| 2026-05-06 00:30 | 47.20559 | 11.90955 | 12346 ft | 328 kts | 229° |
| 2026-05-06 00:30 | 47.19159 | 11.88283 | 11715 ft | 330 kts | 237° |
| 2026-05-06 00:31 | 47.18145 | 11.85286 | 11206 ft | 328 kts | 250° |
| 2026-05-06 00:31 | 47.17626 | 11.82112 | 11077 ft | 309 kts | 260° |
| 2026-05-06 00:31 | 47.17417 | 11.79112 | 10912 ft | 291 kts | 266° |
| 2026-05-06 00:31 | 47.17526 | 11.76181 | 10521 ft | 284 kts | 278° |
| 2026-05-06 00:32 | 47.18034 | 11.73460 | 10264 ft | 273 kts | 289° |
| 2026-05-06 00:32 | 47.18770 | 11.70957 | 10187 ft | 255 kts | 295° |
| 2026-05-06 00:32 | 47.19680 | 11.68823 | 10128 ft | 244 kts | 308° |
| 2026-05-06 00:32 | 47.20829 | 11.67020 | 10071 ft | 243 kts | 315° |
| 2026-05-06 00:33 | 47.22106 | 11.65357 | 9982 ft | 247 kts | 317° |
| 2026-05-06 00:33 | 47.23381 | 11.63683 | 9702 ft | 247 kts | 315° |
| 2026-05-06 00:33 | 47.24608 | 11.61938 | 9544 ft | 239 kts | 313° |
| 2026-05-06 00:33 | 47.25779 | 11.60234 | 9099 ft | 239 kts | 313° |
| 2026-05-06 00:34 | 47.26920 | 11.58462 | 8423 ft | 244 kts | 306° |
| 2026-05-06 00:34 | 47.27659 | 11.56226 | 7633 ft | 250 kts | 283° |
| 2026-05-06 00:34 | 47.27909 | 11.53680 | 6837 ft | 255 kts | 270° |
| 2026-05-06 00:34 | 47.27833 | 11.51115 | 6051 ft | 258 kts | 262° |
| 2026-05-06 00:35 | 47.27585 | 11.48495 | 5256 ft | 261 kts | 259° |
| 2026-05-06 00:35 | 47.27286 | 11.45877 | 4476 ft | 263 kts | 258° |
| 2026-05-06 00:35 | 47.26992 | 11.43253 | 3736 ft | 262 kts | 259° |
| 2026-05-06 00:35 | 47.26734 | 11.40666 | 3236 ft | 251 kts | 261° |
| 2026-05-06 00:36 | 47.26510 | 11.38257 | 3309 ft | 219 kts | 259° |
| 2026-05-06 00:36 | 47.26297 | 11.36208 | 3760 ft | 193 kts | 258° |
| 2026-05-06 00:36 | 47.26043 | 11.34328 | 3887 ft | 181 kts | 249° |
| 2026-05-06 00:36 | 47.25309 | 11.32994 | 3925 ft | 165 kts | 201° |
| 2026-05-06 00:37 | 47.24204 | 11.32867 | 4114 ft | 161 kts | 160° |
| 2026-05-06 00:37 | 47.23280 | 11.33947 | 4003 ft | 184 kts | 120° |
| 2026-05-06 00:37 | 47.22948 | 11.35779 | 4205 ft | 192 kts | 97° |
| 2026-05-06 00:37 | 47.22933 | 11.37712 | 4632 ft | 185 kts | 84° |
| 2026-05-06 00:38 | 47.23289 | 11.39565 | 4761 ft | 197 kts | 55° |
| 2026-05-06 00:38 | 47.24391 | 11.40823 | 4892 ft | 208 kts | 27° |
| 2026-05-06 00:38 | 47.25698 | 11.41742 | 5269 ft | 204 kts | 26° |
| 2026-05-06 00:38 | 47.26978 | 11.42777 | 5195 ft | 221 kts | 37° |
| 2026-05-06 00:39 | 47.28142 | 11.44348 | 5040 ft | 234 kts | 50° |
| 2026-05-06 00:39 | 47.29087 | 11.46210 | 5179 ft | 218 kts | 57° |
| 2026-05-06 00:39 | 47.29910 | 11.48049 | 4879 ft | 215 kts | 60° |
| 2026-05-06 00:39 | 47.30094 | 11.50118 | 4357 ft | 211 kts | 116° |
| 2026-05-06 00:40 | 47.29059 | 11.51343 | 4227 ft | 189 kts | 172° |
| 2026-05-06 00:40 | 47.27834 | 11.50870 | 3895 ft | 189 kts | 221° |
| 2026-05-06 00:40 | 47.27423 | 11.49148 | 3522 ft | 188 kts | 276° |